createdAt,value
2019-06-27T00:00:12.270Z,14.13
2019-06-27T00:02:40.709Z,14.70
2019-06-27T00:05:09.266Z,14.23
2019-06-27T00:07:37.975Z,14.77
2019-06-27T00:10:07.902Z,14.37
2019-06-27T00:12:36.301Z,14.10
2019-06-27T00:15:05.369Z,14.20
2019-06-27T00:17:34.065Z,13.00
2019-06-27T00:20:02.891Z,14.23
2019-06-27T00:22:31.384Z,15.67
2019-06-27T00:24:59.798Z,14.60
2019-06-27T00:27:28.516Z,13.47
2019-06-27T00:29:57.316Z,14.30
2019-06-27T00:32:25.717Z,14.07
2019-06-27T00:34:54.481Z,13.90
2019-06-27T00:37:23.485Z,14.23
2019-06-27T00:39:51.885Z,14.97
2019-06-27T00:42:20.598Z,15.60
2019-06-27T00:44:49.002Z,14.23
2019-06-27T00:47:17.416Z,14.37
2019-06-27T00:49:46.122Z,13.70
2019-06-27T00:52:14.982Z,15.30
2019-06-27T00:54:43.733Z,14.13
2019-06-27T00:57:14.365Z,14.83
2019-06-27T00:59:42.729Z,13.37
2019-06-27T01:02:11.404Z,13.80
2019-06-27T01:04:40.043Z,14.93
2019-06-27T01:07:08.467Z,14.40
2019-06-27T01:09:36.869Z,14.97
2019-06-27T01:12:05.446Z,13.33
2019-06-27T01:14:33.885Z,14.23
2019-06-27T01:17:02.676Z,13.43
2019-06-27T01:19:31.315Z,13.87
2019-06-27T01:22:00.242Z,13.37
2019-06-27T01:24:29.018Z,14.30
2019-06-27T01:26:57.906Z,14.20
2019-06-27T01:29:26.360Z,13.90
2019-06-27T01:31:55.289Z,12.30
2019-06-27T01:34:23.699Z,13.83
2019-06-27T01:36:52.464Z,13.80
2019-06-27T01:39:20.995Z,13.20
2019-06-27T01:41:49.397Z,13.13
2019-06-27T01:44:36.031Z,13.10
2019-06-27T01:47:05.157Z,13.23
2019-06-27T01:49:34.763Z,13.77
2019-06-27T01:52:03.558Z,12.40
2019-06-27T01:54:32.041Z,13.40
2019-06-27T01:57:00.613Z,12.80
2019-06-27T01:59:29.039Z,13.60
2019-06-27T02:01:57.595Z,12.20
2019-06-27T02:04:26.269Z,13.53
2019-06-27T02:06:54.774Z,12.40
2019-06-27T02:09:23.183Z,13.13
2019-06-27T02:11:51.588Z,13.00
2019-06-27T02:14:20.317Z,13.00
2019-06-27T02:16:48.727Z,13.30
2019-06-27T02:19:17.141Z,12.20
2019-06-27T02:21:45.900Z,12.00
2019-06-27T02:24:14.299Z,11.70
2019-06-27T02:26:42.745Z,11.40
2019-06-27T02:29:11.181Z,11.30
2019-06-27T02:31:42.009Z,12.30
2019-06-27T02:34:10.406Z,11.83
2019-06-27T02:36:38.852Z,12.23
2019-06-27T02:39:07.528Z,11.30
2019-06-27T02:41:36.003Z,11.17
2019-06-27T02:44:04.728Z,11.03
2019-06-27T02:46:33.218Z,12.50
2019-06-27T02:49:01.651Z,11.23
2019-06-27T02:51:30.139Z,12.60
2019-06-27T02:53:58.561Z,12.10
2019-06-27T02:56:27.274Z,11.47
2019-06-27T02:58:55.790Z,11.40
2019-06-27T03:01:24.283Z,10.60
2019-06-27T03:03:52.978Z,11.77
2019-06-27T03:06:21.606Z,11.40
2019-06-27T03:08:50.276Z,12.00
2019-06-27T03:11:18.756Z,11.50
2019-06-27T03:13:47.351Z,11.73
2019-06-27T03:16:15.937Z,11.80
2019-06-27T03:18:44.594Z,12.10
2019-06-27T03:21:13.315Z,11.30
2019-06-27T03:23:41.708Z,11.53
2019-06-27T03:26:11.306Z,11.53
2019-06-27T03:28:51.775Z,11.67
2019-06-27T03:31:09.940Z,11.60
2019-06-27T03:33:38.387Z,12.20
2019-06-27T03:36:06.823Z,10.90
2019-06-27T03:38:35.249Z,11.60
2019-06-27T03:41:03.730Z,11.30
2019-06-27T03:43:32.146Z,11.17
2019-06-27T03:46:00.840Z,10.13
2019-06-27T03:48:29.234Z,11.30
2019-06-27T03:50:58.138Z,11.77
2019-06-27T03:53:26.545Z,11.40
2019-06-27T03:55:55.027Z,10.70
2019-06-27T03:58:23.477Z,10.80
2019-06-27T04:00:52.382Z,10.37
2019-06-27T04:03:21.037Z,10.43
2019-06-27T04:05:49.463Z,10.83
2019-06-27T04:08:17.943Z,11.10
2019-06-27T04:10:46.344Z,10.27
2019-06-27T04:13:14.861Z,10.30
2019-06-27T04:15:43.351Z,9.73
2019-06-27T04:18:11.916Z,9.60
2019-06-27T04:20:40.392Z,10.73
2019-06-27T04:23:10.061Z,10.27
2019-06-27T04:25:38.754Z,10.00
2019-06-27T04:28:07.550Z,10.70
2019-06-27T04:30:35.945Z,9.70
2019-06-27T04:33:04.339Z,10.33
2019-06-27T04:35:33.204Z,9.97
2019-06-27T04:38:01.670Z,10.20
2019-06-27T04:40:30.381Z,9.70
2019-06-27T04:42:58.876Z,9.53
2019-06-27T04:45:27.391Z,9.33
2019-06-27T04:47:55.844Z,9.50
2019-06-27T04:50:24.279Z,9.17
2019-06-27T04:52:52.719Z,8.50
2019-06-27T04:55:21.127Z,8.33
2019-06-27T04:57:49.870Z,8.57
2019-06-27T05:00:24.622Z,8.50
2019-06-27T05:02:53.027Z,8.97
2019-06-27T05:05:21.463Z,8.03
2019-06-27T05:07:49.854Z,8.33
2019-06-27T05:10:18.252Z,7.30
2019-06-27T05:12:46.921Z,7.80
2019-06-27T05:15:15.378Z,7.90
2019-06-27T05:17:44.016Z,6.57
2019-06-27T05:20:13.448Z,7.33
2019-06-27T05:22:41.839Z,7.23
2019-06-27T05:25:10.610Z,7.20
2019-06-27T05:27:39.382Z,7.13
2019-06-27T05:30:10.263Z,6.70
2019-06-27T05:32:38.600Z,6.33
2019-06-27T05:35:07.013Z,6.77
2019-06-27T05:37:35.410Z,6.63
2019-06-27T05:40:07.031Z,7.20
2019-06-27T05:42:35.844Z,6.10
2019-06-27T05:45:05.965Z,6.43
2019-06-27T05:47:34.434Z,7.00
2019-06-27T05:50:04.123Z,5.70
2019-06-27T05:52:32.825Z,5.33
2019-06-27T05:55:01.975Z,6.00
2019-06-27T05:57:30.705Z,6.30
2019-06-27T05:59:59.102Z,6.23
2019-06-27T06:02:27.505Z,5.50
2019-06-27T06:04:56.287Z,6.60
2019-06-27T06:07:24.967Z,5.70
2019-06-27T06:09:53.658Z,6.07
2019-06-27T06:12:23.041Z,7.17
2019-06-27T06:14:51.486Z,6.10
2019-06-27T06:17:19.967Z,5.50
2019-06-27T06:19:48.415Z,5.73
2019-06-27T06:22:17.137Z,5.63
2019-06-27T06:24:45.562Z,5.50
2019-06-27T06:27:14.068Z,5.63
2019-06-27T06:29:42.485Z,5.20
2019-06-27T06:32:11.158Z,4.43
2019-06-27T06:34:39.699Z,4.50
2019-06-27T06:37:08.304Z,4.60
2019-06-27T06:39:36.680Z,4.87
2019-06-27T06:42:05.263Z,4.90
2019-06-27T06:44:33.992Z,4.40
2019-06-27T06:47:02.693Z,4.70
2019-06-27T06:49:31.102Z,4.20
2019-06-27T06:51:59.761Z,4.70
2019-06-27T06:54:28.169Z,4.70
2019-06-27T06:56:56.663Z,4.50
2019-06-27T06:59:25.567Z,4.63
2019-06-27T07:01:54.045Z,4.60
2019-06-27T07:04:22.809Z,4.37
2019-06-27T07:06:51.511Z,4.40
2019-06-27T07:09:19.910Z,3.77
2019-06-27T07:11:48.347Z,3.67
2019-06-27T07:14:17.077Z,4.10
2019-06-27T07:16:45.942Z,4.10
2019-06-27T07:19:14.871Z,3.03
2019-06-27T07:21:43.339Z,3.43
2019-06-27T07:24:11.757Z,4.03
2019-06-27T07:26:40.150Z,3.53
2019-06-27T07:29:08.642Z,3.80
2019-06-27T07:31:37.105Z,3.63
2019-06-27T07:34:05.841Z,3.70
2019-06-27T07:36:34.278Z,3.60
2019-06-27T07:39:02.691Z,3.43
2019-06-27T07:41:31.153Z,3.37
2019-06-27T07:44:00.354Z,3.23
2019-06-27T07:46:29.401Z,4.00
2019-06-27T07:48:57.825Z,3.50
2019-06-27T07:51:26.311Z,3.13
2019-06-27T07:53:55.102Z,2.97
2019-06-27T07:56:24.465Z,3.60
2019-06-27T07:58:53.179Z,3.03
2019-06-27T08:01:34.493Z,3.07
2019-06-27T08:03:51.738Z,3.47
2019-06-27T08:06:20.161Z,3.07
2019-06-27T08:08:48.948Z,3.23
2019-06-27T08:11:17.357Z,4.00
2019-06-27T08:13:45.822Z,3.30
2019-06-27T08:16:14.340Z,3.20
2019-06-27T08:18:42.768Z,3.20
2019-06-27T08:21:11.509Z,3.27
2019-06-27T08:23:41.819Z,3.70
2019-06-27T08:26:10.337Z,3.50
2019-06-27T08:28:38.890Z,3.53
2019-06-27T08:31:07.428Z,3.43
2019-06-27T08:33:36.168Z,3.73
2019-06-27T08:36:04.600Z,3.20
2019-06-27T08:38:33.051Z,3.10
2019-06-27T08:41:01.812Z,4.23
2019-06-27T08:43:30.225Z,3.00
2019-06-27T08:45:58.897Z,3.50
2019-06-27T08:48:27.362Z,3.40
2019-06-27T08:50:56.181Z,3.33
2019-06-27T08:53:24.578Z,3.83
2019-06-27T08:55:53.006Z,3.30
2019-06-27T08:58:21.423Z,3.23
2019-06-27T09:00:50.114Z,3.53
2019-06-27T09:03:18.814Z,3.30
2019-06-27T09:05:47.500Z,3.50
2019-06-27T09:08:15.954Z,3.30
2019-06-27T09:10:44.841Z,3.00
2019-06-27T09:13:13.271Z,3.10
2019-06-27T09:15:41.733Z,2.93
2019-06-27T09:18:10.159Z,2.83
2019-06-27T09:20:38.551Z,3.47
2019-06-27T09:23:07.017Z,3.20
2019-06-27T09:25:35.457Z,2.97
2019-06-27T09:28:04.174Z,3.50
2019-06-27T09:30:32.671Z,3.83
2019-06-27T09:33:01.565Z,3.37
2019-06-27T09:35:29.952Z,3.60
2019-06-27T09:37:58.354Z,3.13
2019-06-27T09:40:27.131Z,2.90
2019-06-27T09:42:55.547Z,2.90
2019-06-27T09:45:24.632Z,2.57
2019-06-27T09:47:53.078Z,2.97
2019-06-27T09:50:21.880Z,2.73
2019-06-27T09:52:50.563Z,2.77
2019-06-27T09:55:19.934Z,2.57
2019-06-27T09:57:48.344Z,3.00
2019-06-27T10:00:17.772Z,3.03
2019-06-27T10:02:47.055Z,2.83
2019-06-27T10:05:16.076Z,2.80
2019-06-27T10:07:45.717Z,2.70
2019-06-27T10:10:15.941Z,2.63
2019-06-27T10:12:44.623Z,3.03
2019-06-27T10:15:13.579Z,3.20
2019-06-27T10:17:42.085Z,2.90
2019-06-27T10:20:12.622Z,2.70
2019-06-27T10:22:41.009Z,2.57
2019-06-27T10:25:09.523Z,2.60
2019-06-27T10:27:37.987Z,2.67
2019-06-27T10:30:08.070Z,2.77
2019-06-27T10:32:36.522Z,2.47
2019-06-27T10:35:07.266Z,2.10
2019-06-27T10:37:35.669Z,2.70
2019-06-27T10:40:09.707Z,2.53
2019-06-27T10:42:38.183Z,2.30
2019-06-27T10:45:10.067Z,2.17
2019-06-27T10:47:38.548Z,1.73
2019-06-27T10:50:07.554Z,1.50
2019-06-27T10:52:36.153Z,2.03
2019-06-27T10:55:05.636Z,2.07
2019-06-27T10:57:34.037Z,2.00
2019-06-27T11:00:02.575Z,1.90
2019-06-27T11:02:31.012Z,2.20
2019-06-27T11:04:59.437Z,1.90
2019-06-27T11:07:28.104Z,1.87
2019-06-27T11:09:56.574Z,1.60
2019-06-27T11:12:25.245Z,0.93
2019-06-27T11:14:59.082Z,1.00
2019-06-27T11:17:24.044Z,1.30
2019-06-27T11:19:53.018Z,1.47
2019-06-27T11:22:21.518Z,1.60
2019-06-27T11:24:50.217Z,1.40
2019-06-27T11:27:18.612Z,1.30
2019-06-27T11:29:47.247Z,1.40
2019-06-27T11:32:16.152Z,1.30
2019-06-27T11:34:44.871Z,1.50
2019-06-27T11:37:13.270Z,1.20
2019-06-27T11:39:41.934Z,1.83
2019-06-27T11:42:10.342Z,1.37
2019-06-27T11:44:39.011Z,1.53
2019-06-27T11:47:07.451Z,1.60
2019-06-27T11:49:36.107Z,1.70
2019-06-27T11:52:05.012Z,1.50
2019-06-27T11:54:33.679Z,1.40
2019-06-27T11:57:02.193Z,1.57
2019-06-27T11:59:30.680Z,1.43
2019-06-27T12:01:59.105Z,1.60
2019-06-27T12:04:27.837Z,1.77
2019-06-27T12:06:57.123Z,1.63
2019-06-27T12:09:25.919Z,1.63
2019-06-27T12:11:54.540Z,2.47
2019-06-27T12:14:23.201Z,2.40
2019-06-27T12:16:51.902Z,1.87
2019-06-27T12:19:20.390Z,2.00
2019-06-27T12:21:49.088Z,2.57
2019-06-27T12:24:17.498Z,2.27
2019-06-27T12:26:45.894Z,2.77
2019-06-27T12:29:14.287Z,2.13
2019-06-27T12:31:43.060Z,2.80
2019-06-27T12:34:11.446Z,2.37
2019-06-27T12:36:39.841Z,2.50
2019-06-27T12:39:08.611Z,1.93
2019-06-27T12:41:37.465Z,2.10
2019-06-27T12:44:08.706Z,1.87
2019-06-27T12:46:37.214Z,1.77
2019-06-27T12:49:05.695Z,1.90
2019-06-27T12:51:35.495Z,1.77
2019-06-27T12:54:06.334Z,1.67
2019-06-27T12:56:35.031Z,2.20
2019-06-27T12:59:03.448Z,1.67
2019-06-27T13:01:32.119Z,1.53
2019-06-27T13:04:00.526Z,1.70
2019-06-27T13:06:28.991Z,1.93
2019-06-27T13:08:57.481Z,2.27
2019-06-27T13:11:25.887Z,2.10
2019-06-27T13:13:54.354Z,2.00
2019-06-27T13:16:22.806Z,2.00
2019-06-27T13:18:51.193Z,2.00
2019-06-27T13:21:19.899Z,2.43
2019-06-27T13:23:49.088Z,3.00
2019-06-27T13:26:17.553Z,3.07
2019-06-27T13:28:46.021Z,2.73
2019-06-27T13:31:14.677Z,2.87
2019-06-27T13:33:43.330Z,2.97
2019-06-27T13:36:11.741Z,3.07
2019-06-27T13:38:40.519Z,3.33
2019-06-27T13:41:09.264Z,3.37
2019-06-27T13:43:37.686Z,2.93
2019-06-27T13:46:06.148Z,3.20
2019-06-27T13:48:34.875Z,3.00
2019-06-27T13:51:03.311Z,2.90
2019-06-27T13:53:32.069Z,3.23
2019-06-27T13:56:00.728Z,3.20
2019-06-27T13:58:29.142Z,3.73
2019-06-27T14:00:57.575Z,3.20
2019-06-27T14:03:25.981Z,3.20
2019-06-27T14:05:54.393Z,2.70
2019-06-27T14:08:26.075Z,3.30
2019-06-27T14:10:52.949Z,2.73
2019-06-27T14:13:21.485Z,3.40
2019-06-27T14:15:50.559Z,3.40
2019-06-27T14:18:19.598Z,3.30
2019-06-27T14:20:48.107Z,3.50
2019-06-27T14:23:17.146Z,3.43
2019-06-27T14:25:45.542Z,3.70
2019-06-27T14:28:13.950Z,3.33
2019-06-27T14:30:42.709Z,3.37
2019-06-27T14:33:11.397Z,3.20
2019-06-27T14:35:39.789Z,3.67
2019-06-27T14:38:08.209Z,3.27
2019-06-27T14:40:36.660Z,3.27
2019-06-27T14:43:05.073Z,3.53
2019-06-27T14:45:33.746Z,3.43
2019-06-27T14:48:02.624Z,3.40
2019-06-27T14:50:31.131Z,3.13
2019-06-27T14:52:59.645Z,3.73
2019-06-27T14:55:28.294Z,2.77
2019-06-27T14:57:56.713Z,3.83
2019-06-27T15:00:26.263Z,3.33
2019-06-27T15:02:54.792Z,5.93
2019-06-27T15:05:32.400Z,3.10
2019-06-27T15:07:53.647Z,3.57
2019-06-27T15:10:22.377Z,2.90
2019-06-27T15:12:56.890Z,1.93
2019-06-27T15:15:20.994Z,1.80
2019-06-27T15:17:49.486Z,2.10
2019-06-27T15:20:18.133Z,1.97
2019-06-27T15:22:46.830Z,1.73
2019-06-27T15:25:15.746Z,1.83
2019-06-27T15:27:44.735Z,1.97
2019-06-27T15:30:13.359Z,1.50
2019-06-27T15:32:41.840Z,1.90
2019-06-27T15:35:10.466Z,1.80
2019-06-27T15:37:38.895Z,1.70
2019-06-27T15:40:08.111Z,1.60
2019-06-27T15:42:36.853Z,1.50
2019-06-27T15:45:07.843Z,1.50
2019-06-27T15:47:36.303Z,1.30
2019-06-27T15:50:07.007Z,1.47
2019-06-27T15:52:35.928Z,1.67
2019-06-27T15:55:07.088Z,1.70
2019-06-27T15:57:36.065Z,1.60
2019-06-27T16:00:09.686Z,1.60
2019-06-27T16:02:38.194Z,1.60
2019-06-27T16:05:07.552Z,1.20
2019-06-27T16:07:36.365Z,1.40
2019-06-27T16:10:07.040Z,1.40
2019-06-27T16:12:35.605Z,1.40
2019-06-27T16:15:08.743Z,1.27
2019-06-27T16:17:37.147Z,1.47
2019-06-27T16:20:08.022Z,1.90
2019-06-27T16:22:37.080Z,1.50
2019-06-27T16:25:07.641Z,1.50
2019-06-27T16:27:36.038Z,1.30
2019-06-27T16:30:07.461Z,1.43
2019-06-27T16:32:36.156Z,1.20
2019-06-27T16:35:06.410Z,1.60
2019-06-27T16:37:34.852Z,1.60
2019-06-27T16:40:07.319Z,1.63
2019-06-27T16:42:35.968Z,1.67
2019-06-27T16:45:08.368Z,1.30
2019-06-27T16:47:36.870Z,2.10
2019-06-27T16:50:05.507Z,1.80
2019-06-27T16:52:34.384Z,1.70
2019-06-27T16:55:03.117Z,1.60
2019-06-27T16:57:31.893Z,1.57
2019-06-27T17:00:00.526Z,1.80
2019-06-27T17:02:29.010Z,2.00
2019-06-27T17:04:57.438Z,1.70
2019-06-27T17:07:27.545Z,1.77
2019-06-27T17:09:55.947Z,1.57
2019-06-27T17:12:24.629Z,1.83
2019-06-27T17:14:53.405Z,1.47
2019-06-27T17:17:23.080Z,2.03
2019-06-27T17:19:51.821Z,1.93
2019-06-27T17:22:20.423Z,1.83
2019-06-27T17:24:48.997Z,1.80
2019-06-27T17:27:17.423Z,1.63
2019-06-27T17:29:45.910Z,1.50
2019-06-27T17:32:14.359Z,1.70
2019-06-27T17:34:43.035Z,1.80
2019-06-27T17:37:11.724Z,1.43
2019-06-27T17:39:40.538Z,1.80
2019-06-27T17:42:08.954Z,1.77
2019-06-27T17:44:37.926Z,1.80
2019-06-27T17:47:06.587Z,1.80
2019-06-27T17:49:35.415Z,2.10
2019-06-27T17:52:04.181Z,1.50
2019-06-27T17:54:32.886Z,1.67
2019-06-27T17:57:01.288Z,1.63
2019-06-27T17:59:30.051Z,1.73
2019-06-27T18:01:58.510Z,1.53
2019-06-27T18:04:27.239Z,1.90
2019-06-27T18:06:56.178Z,2.00
2019-06-27T18:09:24.590Z,1.70
2019-06-27T18:11:52.996Z,1.93
2019-06-27T18:14:22.445Z,1.77
2019-06-27T18:16:51.181Z,1.70
2019-06-27T18:19:19.649Z,1.70
2019-06-27T18:21:48.355Z,1.63
2019-06-27T18:24:18.713Z,2.27
2019-06-27T18:26:47.118Z,2.80
2019-06-27T18:29:15.840Z,2.07
2019-06-27T18:31:44.459Z,2.40
2019-06-27T18:34:12.886Z,1.90
2019-06-27T18:36:41.337Z,2.10
2019-06-27T18:39:10.227Z,1.70
2019-06-27T18:41:39.098Z,2.33
2019-06-27T18:44:07.555Z,2.23
2019-06-27T18:46:36.322Z,2.50
2019-06-27T18:49:04.831Z,2.27
2019-06-27T18:51:34.724Z,2.30
2019-06-27T18:54:03.162Z,2.53
2019-06-27T18:56:31.625Z,2.57
2019-06-27T18:59:00.447Z,2.77
2019-06-27T19:01:29.156Z,2.50
2019-06-27T19:03:57.538Z,2.37
2019-06-27T19:06:26.298Z,2.37
2019-06-27T19:08:54.987Z,2.27
2019-06-27T19:11:23.397Z,2.33
2019-06-27T19:13:52.054Z,2.03
2019-06-27T19:16:20.465Z,1.80
2019-06-27T19:18:53.416Z,1.90
2019-06-27T19:21:38.601Z,2.20
2019-06-27T19:24:20.570Z,2.97
2019-06-27T19:26:51.139Z,2.20
2019-06-27T19:29:19.876Z,2.13
2019-06-27T19:31:48.285Z,1.77
2019-06-27T19:34:17.112Z,2.07
2019-06-27T19:36:46.075Z,1.90
2019-06-27T19:39:15.323Z,1.67
2019-06-27T19:41:43.813Z,1.30
2019-06-27T19:44:12.606Z,2.30
2019-06-27T19:46:41.201Z,1.70
2019-06-27T19:49:10.721Z,2.27
2019-06-27T19:51:39.477Z,2.10
2019-06-27T19:54:09.496Z,1.90
2019-06-27T19:56:38.786Z,1.60
2019-06-27T19:59:07.510Z,1.67
2019-06-27T20:01:35.925Z,1.47
2019-06-27T20:04:04.679Z,2.37
2019-06-27T20:06:33.186Z,1.43
2019-06-27T20:09:01.934Z,1.90
2019-06-27T20:11:30.412Z,1.80
2019-06-27T20:13:59.117Z,1.70
2019-06-27T20:16:27.830Z,1.70
2019-06-27T20:18:56.600Z,2.10
2019-06-27T20:21:25.811Z,1.93
2019-06-27T20:23:54.614Z,1.97
2019-06-27T20:26:23.165Z,1.90
2019-06-27T20:28:51.716Z,1.90
2019-06-27T20:31:20.935Z,1.83
2019-06-27T20:33:49.630Z,1.87
2019-06-27T20:36:18.119Z,1.73
2019-06-27T20:38:46.853Z,2.27
2019-06-27T20:41:15.772Z,1.83
2019-06-27T20:43:44.461Z,2.20
2019-06-27T20:46:13.193Z,2.60
2019-06-27T20:48:41.635Z,2.37
2019-06-27T20:51:10.074Z,2.60
2019-06-27T20:53:38.476Z,2.20
2019-06-27T20:56:07.392Z,1.70
2019-06-27T20:58:36.163Z,2.10
2019-06-27T21:01:04.753Z,2.17
2019-06-27T21:03:33.252Z,2.00
2019-06-27T21:06:01.669Z,1.90
2019-06-27T21:08:30.542Z,2.00
2019-06-27T21:10:59.412Z,2.27
2019-06-27T21:13:27.842Z,2.50
2019-06-27T21:15:56.291Z,3.20
2019-06-27T21:18:25.114Z,2.30
2019-06-27T21:20:53.516Z,2.60
2019-06-27T21:23:22.270Z,2.30
2019-06-27T21:25:51.194Z,2.10
2019-06-27T21:28:19.641Z,2.73
2019-06-27T21:30:48.309Z,2.47
2019-06-27T21:33:16.754Z,2.40
2019-06-27T21:35:45.938Z,2.50
2019-06-27T21:38:15.095Z,2.00
2019-06-27T21:40:45.331Z,2.00
2019-06-27T21:43:13.757Z,2.47
2019-06-27T21:45:42.168Z,2.20
2019-06-27T21:48:10.674Z,2.47
2019-06-27T21:50:39.075Z,2.43
2019-06-27T21:53:07.493Z,2.20
2019-06-27T21:55:36.017Z,2.00
2019-06-27T21:58:05.172Z,2.43
2019-06-27T22:00:35.366Z,2.30
2019-06-27T22:03:04.214Z,2.60
2019-06-27T22:05:32.644Z,2.20
2019-06-27T22:08:01.441Z,2.23
2019-06-27T22:10:30.664Z,2.30
2019-06-27T22:12:59.066Z,2.30
2019-06-27T22:15:27.823Z,2.43
2019-06-27T22:17:56.631Z,2.10
2019-06-27T22:20:25.224Z,2.30
2019-06-27T22:22:53.652Z,2.60
2019-06-27T22:25:22.087Z,2.17
2019-06-27T22:27:50.500Z,2.57
2019-06-27T22:30:19.796Z,2.40
2019-06-27T22:32:48.230Z,1.93
2019-06-27T22:35:16.881Z,2.30
2019-06-27T22:38:03.956Z,2.30
2019-06-27T22:40:50.525Z,1.93
2019-06-27T22:43:36.825Z,2.57
2019-06-27T22:46:23.162Z,2.00
2019-06-27T22:48:51.494Z,2.67
2019-06-27T22:51:21.848Z,2.43
2019-06-27T22:53:55.028Z,2.30
2019-06-27T22:56:23.827Z,2.07
2019-06-27T22:58:52.670Z,2.40
2019-06-27T23:01:21.401Z,2.20
2019-06-27T23:03:49.861Z,2.83
2019-06-27T23:06:18.285Z,2.13
2019-06-27T23:08:47.104Z,2.23
2019-06-27T23:11:15.659Z,2.57
2019-06-27T23:13:45.852Z,2.70
2019-06-27T23:16:14.795Z,2.60
2019-06-27T23:18:43.261Z,2.57
2019-06-27T23:21:12.181Z,2.70
2019-06-27T23:23:40.595Z,2.10
2019-06-27T23:26:09.338Z,2.80
2019-06-27T23:28:37.761Z,3.30
2019-06-27T23:31:06.200Z,2.87
2019-06-27T23:33:34.653Z,2.87
2019-06-27T23:36:03.893Z,2.43
2019-06-27T23:38:32.309Z,2.57
2019-06-27T23:41:02.785Z,2.40
2019-06-27T23:43:31.516Z,2.33
2019-06-27T23:45:59.992Z,2.33
2019-06-27T23:48:28.450Z,2.23
2019-06-27T23:50:57.708Z,2.60
2019-06-27T23:53:26.122Z,2.40
2019-06-27T23:55:54.719Z,2.23
2019-06-27T23:58:23.138Z,2.47
